sensor_id;sensor_type;location;lat;lon;timestamp;P1;durP1;ratioP1;P2;durP2;ratioP2
14817;SDS011;7500;57.698;11.986;2023-11-21T00:01:09;8.30;;;6.53;;
14817;SDS011;7500;57.698;11.986;2023-11-21T00:03:37;6.77;;;6.07;;
14817;SDS011;7500;57.698;11.986;2023-11-21T00:06:03;7.53;;;6.30;;
14817;SDS011;7500;57.698;11.986;2023-11-21T00:08:35;7.37;;;6.43;;
14817;SDS011;7500;57.698;11.986;2023-11-21T00:11:02;10.93;;;6.20;;
14817;SDS011;7500;57.698;11.986;2023-11-21T00:13:30;7.83;;;6.43;;
14817;SDS011;7500;57.698;11.986;2023-11-21T00:15:57;7.27;;;6.07;;
14817;SDS011;7500;57.698;11.986;2023-11-21T00:18:23;7.87;;;5.80;;
14817;SDS011;7500;57.698;11.986;2023-11-21T00:20:50;7.07;;;6.10;;
14817;SDS011;7500;57.698;11.986;2023-11-21T00:23:17;8.73;;;7.10;;
14817;SDS011;7500;57.698;11.986;2023-11-21T00:25:44;7.67;;;6.30;;
14817;SDS011;7500;57.698;11.986;2023-11-21T00:28:11;7.60;;;6.80;;
14817;SDS011;7500;57.698;11.986;2023-11-21T00:30:37;9.77;;;6.90;;
14817;SDS011;7500;57.698;11.986;2023-11-21T00:33:04;9.23;;;6.80;;
14817;SDS011;7500;57.698;11.986;2023-11-21T00:35:31;9.00;;;6.60;;
14817;SDS011;7500;57.698;11.986;2023-11-21T00:37:57;9.07;;;6.27;;
14817;SDS011;7500;57.698;11.986;2023-11-21T00:40:24;8.57;;;6.73;;
14817;SDS011;7500;57.698;11.986;2023-11-21T00:42:52;9.50;;;6.77;;
14817;SDS011;7500;57.698;11.986;2023-11-21T00:45:19;8.50;;;6.67;;
14817;SDS011;7500;57.698;11.986;2023-11-21T00:47:45;7.47;;;6.33;;
14817;SDS011;7500;57.698;11.986;2023-11-21T00:50:12;6.97;;;6.27;;
14817;SDS011;7500;57.698;11.986;2023-11-21T00:52:39;11.27;;;6.73;;
14817;SDS011;7500;57.698;11.986;2023-11-21T00:55:05;8.37;;;6.83;;
14817;SDS011;7500;57.698;11.986;2023-11-21T00:57:32;7.17;;;6.07;;
14817;SDS011;7500;57.698;11.986;2023-11-21T01:00:01;7.40;;;6.47;;
14817;SDS011;7500;57.698;11.986;2023-11-21T01:02:32;6.97;;;6.27;;
14817;SDS011;7500;57.698;11.986;2023-11-21T01:05:00;7.77;;;6.47;;
14817;SDS011;7500;57.698;11.986;2023-11-21T01:07:27;9.03;;;7.03;;
14817;SDS011;7500;57.698;11.986;2023-11-21T01:09:54;11.63;;;7.43;;
14817;SDS011;7500;57.698;11.986;2023-11-21T01:12:21;9.13;;;6.70;;
14817;SDS011;7500;57.698;11.986;2023-11-21T01:14:50;9.33;;;6.43;;
14817;SDS011;7500;57.698;11.986;2023-11-21T01:17:18;8.00;;;6.70;;
14817;SDS011;7500;57.698;11.986;2023-11-21T01:19:47;8.60;;;6.80;;
14817;SDS011;7500;57.698;11.986;2023-11-21T01:22:14;7.97;;;6.87;;
14817;SDS011;7500;57.698;11.986;2023-11-21T01:24:41;9.03;;;6.47;;
14817;SDS011;7500;57.698;11.986;2023-11-21T01:27:08;8.67;;;7.07;;
14817;SDS011;7500;57.698;11.986;2023-11-21T01:29:35;8.27;;;6.77;;
14817;SDS011;7500;57.698;11.986;2023-11-21T01:32:02;8.03;;;6.50;;
14817;SDS011;7500;57.698;11.986;2023-11-21T01:34:30;8.50;;;6.77;;
14817;SDS011;7500;57.698;11.986;2023-11-21T01:36:57;8.03;;;6.90;;
14817;SDS011;7500;57.698;11.986;2023-11-21T01:39:24;9.93;;;7.33;;
14817;SDS011;7500;57.698;11.986;2023-11-21T01:41:51;8.90;;;7.10;;
14817;SDS011;7500;57.698;11.986;2023-11-21T01:44:18;7.93;;;6.90;;
14817;SDS011;7500;57.698;11.986;2023-11-21T01:46:45;7.83;;;6.70;;
14817;SDS011;7500;57.698;11.986;2023-11-21T01:49:12;7.43;;;6.63;;
14817;SDS011;7500;57.698;11.986;2023-11-21T01:51:41;9.00;;;6.80;;
14817;SDS011;7500;57.698;11.986;2023-11-21T01:54:09;8.83;;;7.10;;
14817;SDS011;7500;57.698;11.986;2023-11-21T01:56:37;7.53;;;6.43;;
14817;SDS011;7500;57.698;11.986;2023-11-21T01:59:04;8.00;;;6.70;;
14817;SDS011;7500;57.698;11.986;2023-11-21T02:01:32;8.53;;;6.97;;
14817;SDS011;7500;57.698;11.986;2023-11-21T02:03:59;8.00;;;6.70;;
14817;SDS011;7500;57.698;11.986;2023-11-21T02:06:25;9.40;;;6.73;;
14817;SDS011;7500;57.698;11.986;2023-11-21T02:08:53;10.30;;;7.53;;
14817;SDS011;7500;57.698;11.986;2023-11-21T02:11:20;8.23;;;7.10;;
14817;SDS011;7500;57.698;11.986;2023-11-21T02:13:46;9.20;;;7.00;;
14817;SDS011;7500;57.698;11.986;2023-11-21T02:16:15;8.03;;;6.87;;
14817;SDS011;7500;57.698;11.986;2023-11-21T02:18:41;8.03;;;6.73;;
14817;SDS011;7500;57.698;11.986;2023-11-21T02:21:08;7.67;;;6.73;;
14817;SDS011;7500;57.698;11.986;2023-11-21T02:23:36;7.43;;;6.63;;
14817;SDS011;7500;57.698;11.986;2023-11-21T02:26:07;8.63;;;6.53;;
14817;SDS011;7500;57.698;11.986;2023-11-21T02:28:35;8.23;;;6.87;;
14817;SDS011;7500;57.698;11.986;2023-11-21T02:31:01;8.70;;;7.47;;
14817;SDS011;7500;57.698;11.986;2023-11-21T02:33:29;7.23;;;6.43;;
14817;SDS011;7500;57.698;11.986;2023-11-21T02:35:59;10.00;;;6.47;;
14817;SDS011;7500;57.698;11.986;2023-11-21T02:38:25;7.57;;;6.60;;
14817;SDS011;7500;57.698;11.986;2023-11-21T02:40:53;7.90;;;6.67;;
14817;SDS011;7500;57.698;11.986;2023-11-21T02:43:20;7.80;;;6.47;;
14817;SDS011;7500;57.698;11.986;2023-11-21T02:45:46;8.70;;;6.70;;
14817;SDS011;7500;57.698;11.986;2023-11-21T02:48:13;6.93;;;6.00;;
14817;SDS011;7500;57.698;11.986;2023-11-21T02:50:39;7.57;;;6.67;;
14817;SDS011;7500;57.698;11.986;2023-11-21T02:53:08;7.17;;;6.47;;
14817;SDS011;7500;57.698;11.986;2023-11-21T02:55:35;10.80;;;6.90;;
14817;SDS011;7500;57.698;11.986;2023-11-21T02:58:03;10.27;;;6.63;;
14817;SDS011;7500;57.698;11.986;2023-11-21T03:00:31;8.23;;;6.53;;
14817;SDS011;7500;57.698;11.986;2023-11-21T03:02:57;8.73;;;6.50;;
14817;SDS011;7500;57.698;11.986;2023-11-21T03:05:24;8.70;;;6.77;;
14817;SDS011;7500;57.698;11.986;2023-11-21T03:07:51;7.97;;;6.60;;
14817;SDS011;7500;57.698;11.986;2023-11-21T03:10:17;8.27;;;6.40;;
14817;SDS011;7500;57.698;11.986;2023-11-21T03:12:44;7.83;;;6.60;;
14817;SDS011;7500;57.698;11.986;2023-11-21T03:15:12;8.07;;;6.37;;
14817;SDS011;7500;57.698;11.986;2023-11-21T03:17:39;7.90;;;5.90;;
14817;SDS011;7500;57.698;11.986;2023-11-21T03:20:06;6.93;;;6.23;;
14817;SDS011;7500;57.698;11.986;2023-11-21T03:22:35;7.83;;;5.90;;
14817;SDS011;7500;57.698;11.986;2023-11-21T03:25:02;7.03;;;5.57;;
14817;SDS011;7500;57.698;11.986;2023-11-21T03:27:29;8.20;;;6.27;;
14817;SDS011;7500;57.698;11.986;2023-11-21T03:29:56;8.33;;;6.40;;
14817;SDS011;7500;57.698;11.986;2023-11-21T03:32:24;7.20;;;6.03;;
14817;SDS011;7500;57.698;11.986;2023-11-21T03:34:54;7.03;;;5.90;;
14817;SDS011;7500;57.698;11.986;2023-11-21T03:37:21;7.43;;;6.40;;
14817;SDS011;7500;57.698;11.986;2023-11-21T03:39:48;9.70;;;5.83;;
14817;SDS011;7500;57.698;11.986;2023-11-21T03:42:15;6.97;;;5.67;;
14817;SDS011;7500;57.698;11.986;2023-11-21T03:44:41;6.67;;;5.70;;
14817;SDS011;7500;57.698;11.986;2023-11-21T03:47:08;8.10;;;6.23;;
14817;SDS011;7500;57.698;11.986;2023-11-21T03:49:36;7.47;;;6.17;;
14817;SDS011;7500;57.698;11.986;2023-11-21T03:52:02;7.90;;;5.73;;
14817;SDS011;7500;57.698;11.986;2023-11-21T03:54:29;6.53;;;5.70;;
14817;SDS011;7500;57.698;11.986;2023-11-21T03:56:56;7.17;;;5.93;;
14817;SDS011;7500;57.698;11.986;2023-11-21T03:59:22;8.80;;;6.50;;
14817;SDS011;7500;57.698;11.986;2023-11-21T04:01:49;6.73;;;6.03;;
14817;SDS011;7500;57.698;11.986;2023-11-21T04:04:16;7.03;;;5.23;;
14817;SDS011;7500;57.698;11.986;2023-11-21T04:06:44;6.30;;;5.70;;
14817;SDS011;7500;57.698;11.986;2023-11-21T04:09:10;6.57;;;5.37;;
14817;SDS011;7500;57.698;11.986;2023-11-21T04:11:37;6.17;;;5.33;;
14817;SDS011;7500;57.698;11.986;2023-11-21T04:14:04;6.43;;;5.20;;
14817;SDS011;7500;57.698;11.986;2023-11-21T04:16:31;7.73;;;5.20;;
14817;SDS011;7500;57.698;11.986;2023-11-21T04:18:58;7.43;;;5.37;;
14817;SDS011;7500;57.698;11.986;2023-11-21T04:21:25;6.10;;;5.50;;
14817;SDS011;7500;57.698;11.986;2023-11-21T04:23:53;6.70;;;5.37;;
14817;SDS011;7500;57.698;11.986;2023-11-21T04:26:20;7.03;;;5.10;;
14817;SDS011;7500;57.698;11.986;2023-11-21T04:28:47;8.67;;;5.40;;
14817;SDS011;7500;57.698;11.986;2023-11-21T04:31:13;7.27;;;5.63;;
14817;SDS011;7500;57.698;11.986;2023-11-21T04:33:40;5.17;;;4.67;;
14817;SDS011;7500;57.698;11.986;2023-11-21T04:36:06;5.97;;;5.37;;
14817;SDS011;7500;57.698;11.986;2023-11-21T04:38:34;5.77;;;5.20;;
14817;SDS011;7500;57.698;11.986;2023-11-21T04:41:02;6.73;;;5.80;;
14817;SDS011;7500;57.698;11.986;2023-11-21T04:43:30;6.73;;;5.10;;
14817;SDS011;7500;57.698;11.986;2023-11-21T04:45:57;5.70;;;4.83;;
14817;SDS011;7500;57.698;11.986;2023-11-21T04:48:24;7.10;;;5.10;;
14817;SDS011;7500;57.698;11.986;2023-11-21T04:50:51;6.13;;;5.10;;
14817;SDS011;7500;57.698;11.986;2023-11-21T04:53:18;5.93;;;5.10;;
14817;SDS011;7500;57.698;11.986;2023-11-21T04:55:45;6.60;;;4.93;;
14817;SDS011;7500;57.698;11.986;2023-11-21T04:58:15;6.27;;;4.83;;
14817;SDS011;7500;57.698;11.986;2023-11-21T05:00:41;4.90;;;4.33;;
14817;SDS011;7500;57.698;11.986;2023-11-21T05:03:09;6.57;;;5.20;;
14817;SDS011;7500;57.698;11.986;2023-11-21T05:05:35;6.63;;;5.33;;
14817;SDS011;7500;57.698;11.986;2023-11-21T05:08:02;6.07;;;5.40;;
14817;SDS011;7500;57.698;11.986;2023-11-21T05:10:29;6.33;;;5.20;;
14817;SDS011;7500;57.698;11.986;2023-11-21T05:12:56;5.77;;;5.07;;
14817;SDS011;7500;57.698;11.986;2023-11-21T05:15:25;6.63;;;4.97;;
14817;SDS011;7500;57.698;11.986;2023-11-21T05:17:52;5.87;;;5.27;;
14817;SDS011;7500;57.698;11.986;2023-11-21T05:20:20;7.17;;;4.63;;
14817;SDS011;7500;57.698;11.986;2023-11-21T05:22:47;7.93;;;5.07;;
14817;SDS011;7500;57.698;11.986;2023-11-21T05:25:13;6.70;;;5.47;;
14817;SDS011;7500;57.698;11.986;2023-11-21T05:27:40;6.17;;;4.93;;
14817;SDS011;7500;57.698;11.986;2023-11-21T05:30:07;5.90;;;5.30;;
14817;SDS011;7500;57.698;11.986;2023-11-21T05:32:39;5.73;;;5.13;;
14817;SDS011;7500;57.698;11.986;2023-11-21T05:35:07;5.43;;;4.53;;
14817;SDS011;7500;57.698;11.986;2023-11-21T05:37:41;6.50;;;4.93;;
14817;SDS011;7500;57.698;11.986;2023-11-21T05:40:08;6.90;;;5.10;;
14817;SDS011;7500;57.698;11.986;2023-11-21T05:42:35;5.27;;;4.70;;
14817;SDS011;7500;57.698;11.986;2023-11-21T05:45:04;7.70;;;4.80;;
14817;SDS011;7500;57.698;11.986;2023-11-21T05:47:35;6.03;;;4.53;;
14817;SDS011;7500;57.698;11.986;2023-11-21T05:50:04;5.30;;;4.80;;
14817;SDS011;7500;57.698;11.986;2023-11-21T05:52:31;4.90;;;4.40;;
14817;SDS011;7500;57.698;11.986;2023-11-21T05:54:58;5.27;;;4.40;;
14817;SDS011;7500;57.698;11.986;2023-11-21T05:57:24;5.43;;;4.40;;
14817;SDS011;7500;57.698;11.986;2023-11-21T05:59:51;5.47;;;4.63;;
14817;SDS011;7500;57.698;11.986;2023-11-21T06:02:18;4.50;;;4.10;;
14817;SDS011;7500;57.698;11.986;2023-11-21T06:04:44;6.37;;;4.97;;
14817;SDS011;7500;57.698;11.986;2023-11-21T06:07:13;5.20;;;4.30;;
14817;SDS011;7500;57.698;11.986;2023-11-21T06:09:39;4.50;;;3.90;;
14817;SDS011;7500;57.698;11.986;2023-11-21T06:12:06;6.30;;;4.53;;
14817;SDS011;7500;57.698;11.986;2023-11-21T06:14:33;5.67;;;4.67;;
14817;SDS011;7500;57.698;11.986;2023-11-21T06:17:00;4.60;;;4.20;;
14817;SDS011;7500;57.698;11.986;2023-11-21T06:19:27;4.80;;;4.30;;
14817;SDS011;7500;57.698;11.986;2023-11-21T06:21:53;5.83;;;5.00;;
14817;SDS011;7500;57.698;11.986;2023-11-21T06:24:22;4.80;;;4.30;;
14817;SDS011;7500;57.698;11.986;2023-11-21T06:26:48;5.13;;;4.07;;
14817;SDS011;7500;57.698;11.986;2023-11-21T06:29:16;5.80;;;4.60;;
14817;SDS011;7500;57.698;11.986;2023-11-21T06:31:44;4.27;;;3.80;;
14817;SDS011;7500;57.698;11.986;2023-11-21T06:34:11;5.07;;;4.00;;
14817;SDS011;7500;57.698;11.986;2023-11-21T06:36:38;7.67;;;4.50;;
14817;SDS011;7500;57.698;11.986;2023-11-21T06:39:05;6.63;;;4.50;;
14817;SDS011;7500;57.698;11.986;2023-11-21T06:41:35;5.30;;;4.67;;
14817;SDS011;7500;57.698;11.986;2023-11-21T06:44:04;6.43;;;4.47;;
14817;SDS011;7500;57.698;11.986;2023-11-21T06:46:31;5.53;;;4.73;;
14817;SDS011;7500;57.698;11.986;2023-11-21T06:48:58;6.73;;;4.73;;
14817;SDS011;7500;57.698;11.986;2023-11-21T06:51:25;4.67;;;4.27;;
14817;SDS011;7500;57.698;11.986;2023-11-21T06:53:51;7.63;;;4.50;;
14817;SDS011;7500;57.698;11.986;2023-11-21T06:56:18;5.57;;;4.10;;
14817;SDS011;7500;57.698;11.986;2023-11-21T06:58:46;4.47;;;4.07;;
14817;SDS011;7500;57.698;11.986;2023-11-21T07:01:13;6.20;;;4.77;;
14817;SDS011;7500;57.698;11.986;2023-11-21T07:03:40;4.80;;;4.40;;
14817;SDS011;7500;57.698;11.986;2023-11-21T07:06:07;6.27;;;4.70;;
14817;SDS011;7500;57.698;11.986;2023-11-21T07:08:34;6.57;;;4.23;;
14817;SDS011;7500;57.698;11.986;2023-11-21T07:11:01;6.17;;;4.47;;
14817;SDS011;7500;57.698;11.986;2023-11-21T07:13:28;6.37;;;4.70;;
14817;SDS011;7500;57.698;11.986;2023-11-21T07:15:56;5.20;;;4.60;;
14817;SDS011;7500;57.698;11.986;2023-11-21T07:18:23;9.10;;;4.30;;
14817;SDS011;7500;57.698;11.986;2023-11-21T07:20:49;5.80;;;4.30;;
14817;SDS011;7500;57.698;11.986;2023-11-21T07:23:17;6.53;;;4.67;;
14817;SDS011;7500;57.698;11.986;2023-11-21T07:25:43;4.50;;;4.10;;
14817;SDS011;7500;57.698;11.986;2023-11-21T07:28:10;5.03;;;4.47;;
14817;SDS011;7500;57.698;11.986;2023-11-21T07:30:37;7.93;;;4.20;;
14817;SDS011;7500;57.698;11.986;2023-11-21T07:33:05;5.00;;;3.93;;
14817;SDS011;7500;57.698;11.986;2023-11-21T07:35:32;7.10;;;4.53;;
14817;SDS011;7500;57.698;11.986;2023-11-21T07:37:59;6.80;;;4.10;;
14817;SDS011;7500;57.698;11.986;2023-11-21T07:40:26;6.70;;;4.50;;
14817;SDS011;7500;57.698;11.986;2023-11-21T07:42:53;5.57;;;4.70;;
14817;SDS011;7500;57.698;11.986;2023-11-21T07:45:22;7.23;;;4.87;;
14817;SDS011;7500;57.698;11.986;2023-11-21T07:47:49;4.67;;;4.17;;
14817;SDS011;7500;57.698;11.986;2023-11-21T07:50:17;6.40;;;4.40;;
14817;SDS011;7500;57.698;11.986;2023-11-21T07:52:45;5.57;;;4.50;;
14817;SDS011;7500;57.698;11.986;2023-11-21T07:55:11;5.53;;;4.50;;
14817;SDS011;7500;57.698;11.986;2023-11-21T07:57:39;4.90;;;4.33;;
14817;SDS011;7500;57.698;11.986;2023-11-21T08:00:06;4.33;;;3.83;;
14817;SDS011;7500;57.698;11.986;2023-11-21T08:02:34;5.73;;;4.70;;
14817;SDS011;7500;57.698;11.986;2023-11-21T08:05:01;7.17;;;4.27;;
14817;SDS011;7500;57.698;11.986;2023-11-21T08:07:29;5.20;;;4.50;;
14817;SDS011;7500;57.698;11.986;2023-11-21T08:09:56;6.53;;;4.17;;
14817;SDS011;7500;57.698;11.986;2023-11-21T08:12:23;7.30;;;4.30;;
14817;SDS011;7500;57.698;11.986;2023-11-21T08:14:52;6.37;;;4.63;;
14817;SDS011;7500;57.698;11.986;2023-11-21T08:17:20;6.27;;;4.00;;
14817;SDS011;7500;57.698;11.986;2023-11-21T08:19:46;5.27;;;4.50;;
14817;SDS011;7500;57.698;11.986;2023-11-21T08:22:14;6.13;;;4.37;;
14817;SDS011;7500;57.698;11.986;2023-11-21T08:24:42;4.73;;;4.20;;
14817;SDS011;7500;57.698;11.986;2023-11-21T08:27:09;4.80;;;3.90;;
14817;SDS011;7500;57.698;11.986;2023-11-21T08:29:36;6.53;;;4.80;;
14817;SDS011;7500;57.698;11.986;2023-11-21T08:32:03;5.50;;;4.67;;
14817;SDS011;7500;57.698;11.986;2023-11-21T08:34:30;7.13;;;4.73;;
14817;SDS011;7500;57.698;11.986;2023-11-21T08:36:57;8.30;;;4.83;;
14817;SDS011;7500;57.698;11.986;2023-11-21T08:39:24;6.70;;;4.53;;
14817;SDS011;7500;57.698;11.986;2023-11-21T08:41:53;5.47;;;3.87;;
14817;SDS011;7500;57.698;11.986;2023-11-21T08:44:19;7.03;;;4.50;;
14817;SDS011;7500;57.698;11.986;2023-11-21T08:46:48;8.73;;;4.67;;
14817;SDS011;7500;57.698;11.986;2023-11-21T08:49:14;6.80;;;4.93;;
14817;SDS011;7500;57.698;11.986;2023-11-21T08:51:43;6.93;;;4.93;;
14817;SDS011;7500;57.698;11.986;2023-11-21T08:54:10;5.87;;;4.87;;
14817;SDS011;7500;57.698;11.986;2023-11-21T08:56:37;5.33;;;4.47;;
14817;SDS011;7500;57.698;11.986;2023-11-21T08:59:05;6.10;;;4.73;;
14817;SDS011;7500;57.698;11.986;2023-11-21T09:01:33;6.73;;;4.90;;
14817;SDS011;7500;57.698;11.986;2023-11-21T09:03:59;5.97;;;5.00;;
14817;SDS011;7500;57.698;11.986;2023-11-21T09:06:27;5.77;;;4.80;;
14817;SDS011;7500;57.698;11.986;2023-11-21T09:08:54;6.73;;;5.23;;
14817;SDS011;7500;57.698;11.986;2023-11-21T09:11:20;7.27;;;5.37;;
14817;SDS011;7500;57.698;11.986;2023-11-21T09:13:47;6.60;;;4.70;;
14817;SDS011;7500;57.698;11.986;2023-11-21T09:16:15;6.43;;;5.43;;
14817;SDS011;7500;57.698;11.986;2023-11-21T09:18:42;6.23;;;5.10;;
14817;SDS011;7500;57.698;11.986;2023-11-21T09:21:08;7.27;;;5.30;;
14817;SDS011;7500;57.698;11.986;2023-11-21T09:23:35;6.20;;;4.93;;
14817;SDS011;7500;57.698;11.986;2023-11-21T09:26:02;9.60;;;5.53;;
14817;SDS011;7500;57.698;11.986;2023-11-21T09:28:28;9.17;;;5.60;;
14817;SDS011;7500;57.698;11.986;2023-11-21T09:30:55;8.30;;;5.53;;
14817;SDS011;7500;57.698;11.986;2023-11-21T09:33:23;7.53;;;4.63;;
14817;SDS011;7500;57.698;11.986;2023-11-21T09:35:50;8.83;;;4.97;;
14817;SDS011;7500;57.698;11.986;2023-11-21T09:38:17;6.07;;;4.63;;
14817;SDS011;7500;57.698;11.986;2023-11-21T09:40:44;5.90;;;4.83;;
14817;SDS011;7500;57.698;11.986;2023-11-21T09:43:14;8.20;;;4.70;;
14817;SDS011;7500;57.698;11.986;2023-11-21T09:45:43;5.23;;;4.60;;
14817;SDS011;7500;57.698;11.986;2023-11-21T09:48:12;6.77;;;5.27;;
14817;SDS011;7500;57.698;11.986;2023-11-21T09:50:40;5.93;;;4.90;;
14817;SDS011;7500;57.698;11.986;2023-11-21T09:53:09;6.63;;;5.20;;
14817;SDS011;7500;57.698;11.986;2023-11-21T09:55:41;5.30;;;4.07;;
14817;SDS011;7500;57.698;11.986;2023-11-21T09:58:09;7.07;;;5.07;;
14817;SDS011;7500;57.698;11.986;2023-11-21T10:00:38;6.43;;;4.80;;
14817;SDS011;7500;57.698;11.986;2023-11-21T10:03:06;6.17;;;4.33;;
14817;SDS011;7500;57.698;11.986;2023-11-21T10:05:33;6.87;;;4.50;;
14817;SDS011;7500;57.698;11.986;2023-11-21T10:08:01;5.13;;;4.20;;
14817;SDS011;7500;57.698;11.986;2023-11-21T10:10:28;4.97;;;4.13;;
14817;SDS011;7500;57.698;11.986;2023-11-21T10:12:56;5.10;;;4.40;;
14817;SDS011;7500;57.698;11.986;2023-11-21T10:15:24;5.50;;;4.30;;
14817;SDS011;7500;57.698;11.986;2023-11-21T10:17:51;5.57;;;4.07;;
14817;SDS011;7500;57.698;11.986;2023-11-21T10:20:18;4.87;;;3.90;;
14817;SDS011;7500;57.698;11.986;2023-11-21T10:22:45;5.43;;;3.80;;
14817;SDS011;7500;57.698;11.986;2023-11-21T10:25:13;5.00;;;4.17;;
14817;SDS011;7500;57.698;11.986;2023-11-21T10:27:40;7.70;;;4.07;;
14817;SDS011;7500;57.698;11.986;2023-11-21T10:30:08;4.57;;;3.50;;
14817;SDS011;7500;57.698;11.986;2023-11-21T10:32:37;5.33;;;4.00;;
14817;SDS011;7500;57.698;11.986;2023-11-21T10:35:03;5.70;;;4.07;;
14817;SDS011;7500;57.698;11.986;2023-11-21T10:37:35;4.60;;;3.73;;
14817;SDS011;7500;57.698;11.986;2023-11-21T10:40:02;3.77;;;3.33;;
14817;SDS011;7500;57.698;11.986;2023-11-21T10:42:32;7.17;;;3.93;;
14817;SDS011;7500;57.698;11.986;2023-11-21T10:44:59;4.97;;;3.50;;
14817;SDS011;7500;57.698;11.986;2023-11-21T10:47:28;4.93;;;3.00;;
14817;SDS011;7500;57.698;11.986;2023-11-21T10:49:54;4.67;;;3.53;;
14817;SDS011;7500;57.698;11.986;2023-11-21T10:52:21;3.57;;;3.27;;
14817;SDS011;7500;57.698;11.986;2023-11-21T10:54:48;4.40;;;3.70;;
14817;SDS011;7500;57.698;11.986;2023-11-21T10:57:17;5.17;;;3.70;;
14817;SDS011;7500;57.698;11.986;2023-11-21T10:59:47;4.23;;;3.60;;
14817;SDS011;7500;57.698;11.986;2023-11-21T11:02:18;4.23;;;3.77;;
14817;SDS011;7500;57.698;11.986;2023-11-21T11:04:47;4.77;;;3.50;;
14817;SDS011;7500;57.698;11.986;2023-11-21T11:07:15;3.63;;;3.00;;
14817;SDS011;7500;57.698;11.986;2023-11-21T11:09:42;4.43;;;3.13;;
14817;SDS011;7500;57.698;11.986;2023-11-21T11:12:10;3.53;;;3.23;;
14817;SDS011;7500;57.698;11.986;2023-11-21T11:14:39;3.83;;;3.20;;
14817;SDS011;7500;57.698;11.986;2023-11-21T11:17:09;5.87;;;3.17;;
14817;SDS011;7500;57.698;11.986;2023-11-21T11:19:36;4.40;;;3.40;;
14817;SDS011;7500;57.698;11.986;2023-11-21T11:22:08;3.20;;;2.90;;
14817;SDS011;7500;57.698;11.986;2023-11-21T11:24:50;4.37;;;3.20;;
14817;SDS011;7500;57.698;11.986;2023-11-21T11:27:22;3.63;;;2.90;;
14817;SDS011;7500;57.698;11.986;2023-11-21T11:29:59;4.03;;;3.20;;
14817;SDS011;7500;57.698;11.986;2023-11-21T11:32:33;4.00;;;3.07;;
14817;SDS011;7500;57.698;11.986;2023-11-21T11:35:06;4.83;;;3.10;;
14817;SDS011;7500;57.698;11.986;2023-11-21T11:37:33;6.53;;;3.20;;
14817;SDS011;7500;57.698;11.986;2023-11-21T11:40:00;7.67;;;3.30;;
14817;SDS011;7500;57.698;11.986;2023-11-21T11:42:27;3.80;;;3.20;;
14817;SDS011;7500;57.698;11.986;2023-11-21T11:44:55;4.10;;;3.60;;
14817;SDS011;7500;57.698;11.986;2023-11-21T11:47:23;4.00;;;2.90;;
14817;SDS011;7500;57.698;11.986;2023-11-21T11:50:01;6.20;;;3.07;;
14817;SDS011;7500;57.698;11.986;2023-11-21T11:52:32;4.50;;;3.20;;
14817;SDS011;7500;57.698;11.986;2023-11-21T11:54:59;4.00;;;2.80;;
14817;SDS011;7500;57.698;11.986;2023-11-21T11:57:26;3.87;;;3.10;;
14817;SDS011;7500;57.698;11.986;2023-11-21T12:02:51;4.63;;;3.07;;
14817;SDS011;7500;57.698;11.986;2023-11-21T12:05:19;4.87;;;3.50;;
14817;SDS011;7500;57.698;11.986;2023-11-21T12:07:46;3.77;;;3.13;;
14817;SDS011;7500;57.698;11.986;2023-11-21T12:10:14;3.43;;;2.90;;
14817;SDS011;7500;57.698;11.986;2023-11-21T12:12:43;4.23;;;3.03;;
14817;SDS011;7500;57.698;11.986;2023-11-21T12:15:11;4.77;;;3.00;;
14817;SDS011;7500;57.698;11.986;2023-11-21T12:17:38;3.17;;;2.87;;
14817;SDS011;7500;57.698;11.986;2023-11-21T12:20:05;3.53;;;3.10;;
14817;SDS011;7500;57.698;11.986;2023-11-21T12:22:41;3.87;;;2.80;;
14817;SDS011;7500;57.698;11.986;2023-11-21T12:25:08;4.73;;;3.10;;
14817;SDS011;7500;57.698;11.986;2023-11-21T12:27:34;4.07;;;2.80;;
14817;SDS011;7500;57.698;11.986;2023-11-21T12:30:01;3.50;;;2.97;;
14817;SDS011;7500;57.698;11.986;2023-11-21T12:32:28;6.47;;;3.10;;
14817;SDS011;7500;57.698;11.986;2023-11-21T12:34:54;4.23;;;2.90;;
14817;SDS011;7500;57.698;11.986;2023-11-21T12:37:21;3.20;;;2.90;;
14817;SDS011;7500;57.698;11.986;2023-11-21T12:39:49;4.53;;;3.00;;
14817;SDS011;7500;57.698;11.986;2023-11-21T12:42:18;3.73;;;3.07;;
14817;SDS011;7500;57.698;11.986;2023-11-21T12:44:46;4.83;;;2.73;;
14817;SDS011;7500;57.698;11.986;2023-11-21T12:47:16;4.53;;;2.80;;
14817;SDS011;7500;57.698;11.986;2023-11-21T12:49:43;4.97;;;3.33;;
14817;SDS011;7500;57.698;11.986;2023-11-21T12:52:10;4.20;;;2.93;;
14817;SDS011;7500;57.698;11.986;2023-11-21T12:54:37;3.33;;;2.97;;
14817;SDS011;7500;57.698;11.986;2023-11-21T12:57:05;5.43;;;2.77;;
14817;SDS011;7500;57.698;11.986;2023-11-21T12:59:33;2.93;;;2.57;;
14817;SDS011;7500;57.698;11.986;2023-11-21T13:02:00;5.03;;;2.67;;
14817;SDS011;7500;57.698;11.986;2023-11-21T13:04:31;3.60;;;2.67;;
14817;SDS011;7500;57.698;11.986;2023-11-21T13:07:03;4.87;;;2.90;;
14817;SDS011;7500;57.698;11.986;2023-11-21T13:09:31;4.43;;;2.63;;
14817;SDS011;7500;57.698;11.986;2023-11-21T13:12:01;3.17;;;2.70;;
14817;SDS011;7500;57.698;11.986;2023-11-21T13:14:31;2.90;;;2.63;;
14817;SDS011;7500;57.698;11.986;2023-11-21T13:16:58;3.80;;;2.33;;
14817;SDS011;7500;57.698;11.986;2023-11-21T13:19:24;2.70;;;2.33;;
14817;SDS011;7500;57.698;11.986;2023-11-21T13:21:52;3.60;;;2.70;;
14817;SDS011;7500;57.698;11.986;2023-11-21T13:24:19;5.40;;;2.80;;
14817;SDS011;7500;57.698;11.986;2023-11-21T13:26:46;5.00;;;2.60;;
14817;SDS011;7500;57.698;11.986;2023-11-21T13:29:15;4.53;;;2.80;;
14817;SDS011;7500;57.698;11.986;2023-11-21T13:31:43;3.43;;;2.40;;
14817;SDS011;7500;57.698;11.986;2023-11-21T13:34:09;2.87;;;2.60;;
14817;SDS011;7500;57.698;11.986;2023-11-21T13:36:39;3.80;;;2.40;;
14817;SDS011;7500;57.698;11.986;2023-11-21T13:39:07;4.30;;;2.73;;
14817;SDS011;7500;57.698;11.986;2023-11-21T13:41:40;4.20;;;2.63;;
14817;SDS011;7500;57.698;11.986;2023-11-21T13:44:07;4.37;;;2.73;;
14817;SDS011;7500;57.698;11.986;2023-11-21T13:46:42;6.47;;;2.90;;
14817;SDS011;7500;57.698;11.986;2023-11-21T13:49:10;3.27;;;2.60;;
14817;SDS011;7500;57.698;11.986;2023-11-21T13:51:38;2.90;;;2.57;;
14817;SDS011;7500;57.698;11.986;2023-11-21T13:54:08;3.67;;;2.33;;
14817;SDS011;7500;57.698;11.986;2023-11-21T13:56:35;3.67;;;2.50;;
14817;SDS011;7500;57.698;11.986;2023-11-21T13:59:02;3.70;;;2.63;;
14817;SDS011;7500;57.698;11.986;2023-11-21T14:01:43;3.93;;;2.53;;
14817;SDS011;7500;57.698;11.986;2023-11-21T14:04:20;5.40;;;2.50;;
14817;SDS011;7500;57.698;11.986;2023-11-21T14:07:00;5.03;;;2.60;;
14817;SDS011;7500;57.698;11.986;2023-11-21T14:09:42;6.90;;;2.63;;
14817;SDS011;7500;57.698;11.986;2023-11-21T14:12:09;5.30;;;2.50;;
14817;SDS011;7500;57.698;11.986;2023-11-21T14:14:38;6.67;;;2.87;;
14817;SDS011;7500;57.698;11.986;2023-11-21T14:17:07;2.93;;;2.27;;
14817;SDS011;7500;57.698;11.986;2023-11-21T14:19:35;5.67;;;2.20;;
14817;SDS011;7500;57.698;11.986;2023-11-21T14:22:05;2.83;;;2.43;;
14817;SDS011;7500;57.698;11.986;2023-11-21T14:24:32;3.30;;;2.30;;
14817;SDS011;7500;57.698;11.986;2023-11-21T14:26:59;4.07;;;2.30;;
14817;SDS011;7500;57.698;11.986;2023-11-21T14:29:26;4.00;;;2.30;;
14817;SDS011;7500;57.698;11.986;2023-11-21T14:31:54;3.27;;;2.07;;
14817;SDS011;7500;57.698;11.986;2023-11-21T14:34:24;2.80;;;1.97;;
14817;SDS011;7500;57.698;11.986;2023-11-21T14:36:51;2.60;;;2.40;;
14817;SDS011;7500;57.698;11.986;2023-11-21T14:39:18;2.23;;;1.90;;
14817;SDS011;7500;57.698;11.986;2023-11-21T14:41:48;3.00;;;2.23;;
14817;SDS011;7500;57.698;11.986;2023-11-21T14:44:15;6.23;;;2.23;;
14817;SDS011;7500;57.698;11.986;2023-11-21T14:46:42;2.87;;;2.20;;
14817;SDS011;7500;57.698;11.986;2023-11-21T14:49:11;4.03;;;2.20;;
14817;SDS011;7500;57.698;11.986;2023-11-21T14:51:46;3.13;;;2.30;;
14817;SDS011;7500;57.698;11.986;2023-11-21T14:54:25;5.70;;;2.40;;